Terminal Aerodrome Forecast
Issued by NWS Louisville, KY

Home | Current Version | Previous Version | Text Only | Print | Product List | Glossary On
Versions: 1 2 3 4 5 6 7 8 9 10 11 12 13
000
FTUS43 KLMK 241726
TAFLEX
TAF
KLEX 241726Z 2418/2518 21015G24KT P6SM SCT040 SCT200
     FM250000 17007KT P6SM BKN180
     FM251000 17007KT P6SM SCT040 BKN180 WS015/20042KT
     FM251400 18012G21KT P6SM SCT040 BKN150=

USA.gov is the U.S. government's official web portal to all federal, state and local government web resources and services.